Terminal Aerodrome Forecast
Issued by NWS

Home | Current Version | Previous Version | Graphics & Text | Print | Product List | Glossary On
Versions: 1 2 3 4 5 6 7 8 9 10 11 12 13 14 15 16 17 18 19 20 21 22 23
000
FTUS43 KGRB 251131
TAFAUW
TAF
KAUW 251131Z 2512/2612 14007KT P6SM SCT250 WS019/19030KT
     FM251500 15008KT P6SM SCT120
     FM251600 16008G14KT P6SM BKN120
     FM252100 17008KT P6SM OVC070
     FM252200 13005KT P6SM -SHRA OVC060
     FM260400 10007KT P6SM SHRA OVC035 WS019/17035KT=

USA.gov is the U.S. government's official web portal to all federal, state and local government web resources and services.